sensor_id;sensor_type;location;lat;lon;timestamp;P1;durP1;ratioP1;P2;durP2;ratioP2
16242;SDS011;11719;51.052;6.982;2023-02-16T00:00:42;9.13;;;4.63;;
16242;SDS011;11719;51.052;6.982;2023-02-16T00:03:12;12.53;;;5.60;;
16242;SDS011;11719;51.052;6.982;2023-02-16T00:05:48;9.83;;;4.40;;
16242;SDS011;11719;51.052;6.982;2023-02-16T00:08:14;10.20;;;4.77;;
16242;SDS011;11719;51.052;6.982;2023-02-16T00:10:40;11.00;;;5.20;;
16242;SDS011;11719;51.052;6.982;2023-02-16T00:13:27;11.03;;;5.53;;
16242;SDS011;11719;51.052;6.982;2023-02-16T00:16:19;8.80;;;5.10;;
16242;SDS011;11719;51.052;6.982;2023-02-16T00:18:48;8.47;;;4.50;;
16242;SDS011;11719;51.052;6.982;2023-02-16T00:21:15;9.50;;;4.07;;
16242;SDS011;11719;51.052;6.982;2023-02-16T00:23:42;11.80;;;5.40;;
16242;SDS011;11719;51.052;6.982;2023-02-16T00:26:16;10.43;;;5.00;;
16242;SDS011;11719;51.052;6.982;2023-02-16T00:28:51;11.53;;;5.37;;
16242;SDS011;11719;51.052;6.982;2023-02-16T00:31:21;8.97;;;4.43;;
16242;SDS011;11719;51.052;6.982;2023-02-16T00:33:51;11.17;;;5.40;;
16242;SDS011;11719;51.052;6.982;2023-02-16T00:36:17;12.27;;;5.00;;
16242;SDS011;11719;51.052;6.982;2023-02-16T00:38:43;9.43;;;4.80;;
16242;SDS011;11719;51.052;6.982;2023-02-16T00:41:16;11.27;;;5.10;;
16242;SDS011;11719;51.052;6.982;2023-02-16T00:44:13;11.23;;;5.43;;
16242;SDS011;11719;51.052;6.982;2023-02-16T00:46:54;8.23;;;4.40;;
16242;SDS011;11719;51.052;6.982;2023-02-16T00:49:21;9.63;;;5.03;;
16242;SDS011;11719;51.052;6.982;2023-02-16T00:51:47;10.00;;;4.33;;
16242;SDS011;11719;51.052;6.982;2023-02-16T00:54:14;10.00;;;5.10;;
16242;SDS011;11719;51.052;6.982;2023-02-16T00:56:40;9.10;;;4.83;;
16242;SDS011;11719;51.052;6.982;2023-02-16T00:59:12;9.37;;;5.00;;
16242;SDS011;11719;51.052;6.982;2023-02-16T01:01:42;12.03;;;5.40;;
16242;SDS011;11719;51.052;6.982;2023-02-16T01:04:09;8.07;;;4.43;;
16242;SDS011;11719;51.052;6.982;2023-02-16T01:06:44;9.70;;;4.83;;
16242;SDS011;11719;51.052;6.982;2023-02-16T01:09:29;10.67;;;4.67;;
16242;SDS011;11719;51.052;6.982;2023-02-16T01:12:14;9.63;;;5.20;;
16242;SDS011;11719;51.052;6.982;2023-02-16T01:14:44;9.57;;;4.70;;
16242;SDS011;11719;51.052;6.982;2023-02-16T01:17:15;10.83;;;4.67;;
16242;SDS011;11719;51.052;6.982;2023-02-16T01:19:41;12.00;;;5.47;;
16242;SDS011;11719;51.052;6.982;2023-02-16T01:22:07;9.20;;;5.10;;
16242;SDS011;11719;51.052;6.982;2023-02-16T01:24:32;16.67;;;6.37;;
16242;SDS011;11719;51.052;6.982;2023-02-16T01:26:58;11.50;;;6.03;;
16242;SDS011;11719;51.052;6.982;2023-02-16T01:29:24;13.87;;;5.93;;
16242;SDS011;11719;51.052;6.982;2023-02-16T01:31:50;13.87;;;4.93;;
16242;SDS011;11719;51.052;6.982;2023-02-16T01:34:16;9.83;;;5.00;;
16242;SDS011;11719;51.052;6.982;2023-02-16T01:36:42;13.73;;;5.60;;
16242;SDS011;11719;51.052;6.982;2023-02-16T01:39:13;9.47;;;5.20;;
16242;SDS011;11719;51.052;6.982;2023-02-16T01:44:44;10.97;;;5.27;;
16242;SDS011;11719;51.052;6.982;2023-02-16T01:52:49;9.53;;;5.23;;
16242;SDS011;11719;51.052;6.982;2023-02-16T01:55:28;11.47;;;5.00;;
16242;SDS011;11719;51.052;6.982;2023-02-16T01:58:06;12.37;;;5.47;;
16242;SDS011;11719;51.052;6.982;2023-02-16T02:03:29;10.17;;;5.87;;
16242;SDS011;11719;51.052;6.982;2023-02-16T02:06:18;11.50;;;5.30;;
16242;SDS011;11719;51.052;6.982;2023-02-16T02:08:56;10.77;;;4.80;;
16242;SDS011;11719;51.052;6.982;2023-02-16T02:11:33;11.10;;;4.87;;
16242;SDS011;11719;51.052;6.982;2023-02-16T02:17:05;13.60;;;5.67;;
16242;SDS011;11719;51.052;6.982;2023-02-16T02:19:44;10.30;;;4.57;;
16242;SDS011;11719;51.052;6.982;2023-02-16T02:25:46;11.40;;;5.43;;
16242;SDS011;11719;51.052;6.982;2023-02-16T02:31:49;8.53;;;4.83;;
16242;SDS011;11719;51.052;6.982;2023-02-16T02:39:57;10.33;;;5.87;;
16242;SDS011;11719;51.052;6.982;2023-02-16T02:45:31;9.90;;;5.03;;
16242;SDS011;11719;51.052;6.982;2023-02-16T02:48:02;12.27;;;5.73;;
16242;SDS011;11719;51.052;6.982;2023-02-16T02:50:30;9.63;;;4.97;;
16242;SDS011;11719;51.052;6.982;2023-02-16T02:53:30;12.03;;;5.43;;
16242;SDS011;11719;51.052;6.982;2023-02-16T02:56:04;9.83;;;5.33;;
16242;SDS011;11719;51.052;6.982;2023-02-16T02:58:52;8.90;;;4.27;;
16242;SDS011;11719;51.052;6.982;2023-02-16T03:01:46;7.37;;;4.67;;
16242;SDS011;11719;51.052;6.982;2023-02-16T03:04:17;10.07;;;4.80;;
16242;SDS011;11719;51.052;6.982;2023-02-16T03:06:49;10.30;;;5.17;;
16242;SDS011;11719;51.052;6.982;2023-02-16T03:09:17;10.80;;;5.23;;
16242;SDS011;11719;51.052;6.982;2023-02-16T03:11:44;11.10;;;5.80;;
16242;SDS011;11719;51.052;6.982;2023-02-16T03:17:10;9.00;;;4.93;;
16242;SDS011;11719;51.052;6.982;2023-02-16T03:19:58;13.17;;;5.57;;
16242;SDS011;11719;51.052;6.982;2023-02-16T03:22:46;10.30;;;6.03;;
16242;SDS011;11719;51.052;6.982;2023-02-16T03:25:31;9.43;;;4.90;;
16242;SDS011;11719;51.052;6.982;2023-02-16T03:28:19;13.70;;;5.23;;
16242;SDS011;11719;51.052;6.982;2023-02-16T03:31:09;8.53;;;4.43;;
16242;SDS011;11719;51.052;6.982;2023-02-16T03:33:38;11.60;;;5.70;;
16242;SDS011;11719;51.052;6.982;2023-02-16T03:36:05;7.17;;;4.63;;
16242;SDS011;11719;51.052;6.982;2023-02-16T03:38:32;12.23;;;6.27;;
16242;SDS011;11719;51.052;6.982;2023-02-16T03:40:58;11.17;;;5.20;;
16242;SDS011;11719;51.052;6.982;2023-02-16T03:43:25;11.73;;;5.20;;
16242;SDS011;11719;51.052;6.982;2023-02-16T03:45:52;9.50;;;4.20;;
16242;SDS011;11719;51.052;6.982;2023-02-16T03:48:18;9.73;;;5.47;;
16242;SDS011;11719;51.052;6.982;2023-02-16T03:50:44;13.47;;;5.13;;
16242;SDS011;11719;51.052;6.982;2023-02-16T03:53:10;12.50;;;4.67;;
16242;SDS011;11719;51.052;6.982;2023-02-16T03:55:37;7.50;;;4.73;;
16242;SDS011;11719;51.052;6.982;2023-02-16T03:58:06;11.33;;;4.80;;
16242;SDS011;11719;51.052;6.982;2023-02-16T04:00:35;11.33;;;4.67;;
16242;SDS011;11719;51.052;6.982;2023-02-16T04:03:02;12.17;;;6.13;;
16242;SDS011;11719;51.052;6.982;2023-02-16T04:05:29;10.57;;;4.27;;
16242;SDS011;11719;51.052;6.982;2023-02-16T04:07:56;11.33;;;5.20;;
16242;SDS011;11719;51.052;6.982;2023-02-16T04:10:22;11.40;;;5.13;;
16242;SDS011;11719;51.052;6.982;2023-02-16T04:12:48;8.87;;;5.00;;
16242;SDS011;11719;51.052;6.982;2023-02-16T04:15:15;9.20;;;5.43;;
16242;SDS011;11719;51.052;6.982;2023-02-16T04:17:43;12.13;;;5.17;;
16242;SDS011;11719;51.052;6.982;2023-02-16T04:20:10;10.07;;;4.93;;
16242;SDS011;11719;51.052;6.982;2023-02-16T04:22:39;11.70;;;5.83;;
16242;SDS011;11719;51.052;6.982;2023-02-16T04:25:05;9.37;;;5.40;;
16242;SDS011;11719;51.052;6.982;2023-02-16T04:27:32;7.17;;;4.80;;
16242;SDS011;11719;51.052;6.982;2023-02-16T04:29:59;11.77;;;5.50;;
16242;SDS011;11719;51.052;6.982;2023-02-16T04:32:25;12.40;;;5.37;;
16242;SDS011;11719;51.052;6.982;2023-02-16T04:34:51;12.70;;;5.30;;
16242;SDS011;11719;51.052;6.982;2023-02-16T04:37:16;10.17;;;5.43;;
16242;SDS011;11719;51.052;6.982;2023-02-16T04:39:42;8.50;;;4.83;;
16242;SDS011;11719;51.052;6.982;2023-02-16T04:42:08;7.93;;;4.17;;
16242;SDS011;11719;51.052;6.982;2023-02-16T04:44:34;11.87;;;6.07;;
16242;SDS011;11719;51.052;6.982;2023-02-16T04:46:59;14.57;;;5.97;;
16242;SDS011;11719;51.052;6.982;2023-02-16T04:49:26;9.80;;;5.97;;
16242;SDS011;11719;51.052;6.982;2023-02-16T04:51:51;9.67;;;5.07;;
16242;SDS011;11719;51.052;6.982;2023-02-16T04:54:17;10.17;;;5.67;;
16242;SDS011;11719;51.052;6.982;2023-02-16T04:56:44;12.07;;;6.07;;
16242;SDS011;11719;51.052;6.982;2023-02-16T04:59:11;8.53;;;4.77;;
16242;SDS011;11719;51.052;6.982;2023-02-16T05:01:38;9.27;;;5.17;;
16242;SDS011;11719;51.052;6.982;2023-02-16T05:04:04;12.13;;;5.37;;
16242;SDS011;11719;51.052;6.982;2023-02-16T05:06:30;11.17;;;5.23;;
16242;SDS011;11719;51.052;6.982;2023-02-16T05:08:55;13.37;;;5.00;;
16242;SDS011;11719;51.052;6.982;2023-02-16T05:11:21;9.83;;;5.10;;
16242;SDS011;11719;51.052;6.982;2023-02-16T05:14:06;10.43;;;5.50;;
16242;SDS011;11719;51.052;6.982;2023-02-16T05:19:51;9.27;;;5.33;;
16242;SDS011;11719;51.052;6.982;2023-02-16T05:22:22;11.23;;;5.27;;
16242;SDS011;11719;51.052;6.982;2023-02-16T05:24:49;13.20;;;6.20;;
16242;SDS011;11719;51.052;6.982;2023-02-16T05:27:18;11.67;;;5.53;;
16242;SDS011;11719;51.052;6.982;2023-02-16T05:29:47;12.40;;;5.40;;
16242;SDS011;11719;51.052;6.982;2023-02-16T05:32:13;10.47;;;5.30;;
16242;SDS011;11719;51.052;6.982;2023-02-16T05:34:45;8.60;;;4.73;;
16242;SDS011;11719;51.052;6.982;2023-02-16T05:37:12;12.27;;;5.43;;
16242;SDS011;11719;51.052;6.982;2023-02-16T05:39:39;13.90;;;6.03;;
16242;SDS011;11719;51.052;6.982;2023-02-16T05:42:05;13.57;;;6.33;;
16242;SDS011;11719;51.052;6.982;2023-02-16T05:44:31;10.40;;;6.20;;
16242;SDS011;11719;51.052;6.982;2023-02-16T05:46:57;9.50;;;5.60;;
16242;SDS011;11719;51.052;6.982;2023-02-16T05:49:23;11.37;;;6.03;;
16242;SDS011;11719;51.052;6.982;2023-02-16T05:51:49;9.30;;;5.50;;
16242;SDS011;11719;51.052;6.982;2023-02-16T05:54:15;11.00;;;5.83;;
16242;SDS011;11719;51.052;6.982;2023-02-16T05:56:44;13.70;;;6.03;;
16242;SDS011;11719;51.052;6.982;2023-02-16T05:59:12;12.27;;;5.83;;
16242;SDS011;11719;51.052;6.982;2023-02-16T06:01:40;9.73;;;5.47;;
16242;SDS011;11719;51.052;6.982;2023-02-16T06:04:07;12.60;;;6.40;;
16242;SDS011;11719;51.052;6.982;2023-02-16T06:06:35;7.20;;;4.60;;
16242;SDS011;11719;51.052;6.982;2023-02-16T06:09:03;12.23;;;5.93;;
16242;SDS011;11719;51.052;6.982;2023-02-16T06:11:32;11.43;;;4.37;;
16242;SDS011;11719;51.052;6.982;2023-02-16T06:14:01;11.50;;;5.20;;
16242;SDS011;11719;51.052;6.982;2023-02-16T06:16:39;9.23;;;5.40;;
16242;SDS011;11719;51.052;6.982;2023-02-16T06:19:08;9.40;;;5.43;;
16242;SDS011;11719;51.052;6.982;2023-02-16T06:21:34;12.53;;;5.43;;
16242;SDS011;11719;51.052;6.982;2023-02-16T06:24:01;10.60;;;6.00;;
16242;SDS011;11719;51.052;6.982;2023-02-16T06:26:28;12.73;;;7.13;;
16242;SDS011;11719;51.052;6.982;2023-02-16T06:28:54;13.00;;;6.17;;
16242;SDS011;11719;51.052;6.982;2023-02-16T06:31:20;8.70;;;4.53;;
16242;SDS011;11719;51.052;6.982;2023-02-16T06:33:47;10.30;;;5.73;;
16242;SDS011;11719;51.052;6.982;2023-02-16T06:36:13;10.90;;;5.83;;
16242;SDS011;11719;51.052;6.982;2023-02-16T06:38:40;9.10;;;5.23;;
16242;SDS011;11719;51.052;6.982;2023-02-16T06:41:06;11.53;;;5.63;;
16242;SDS011;11719;51.052;6.982;2023-02-16T06:43:32;16.83;;;6.60;;
16242;SDS011;11719;51.052;6.982;2023-02-16T06:45:58;15.97;;;6.30;;
16242;SDS011;11719;51.052;6.982;2023-02-16T06:48:24;14.67;;;6.93;;
16242;SDS011;11719;51.052;6.982;2023-02-16T06:50:50;15.77;;;6.50;;
16242;SDS011;11719;51.052;6.982;2023-02-16T06:53:16;15.47;;;6.13;;
16242;SDS011;11719;51.052;6.982;2023-02-16T06:55:41;9.50;;;5.30;;
16242;SDS011;11719;51.052;6.982;2023-02-16T06:58:08;18.70;;;7.47;;
16242;SDS011;11719;51.052;6.982;2023-02-16T07:00:33;13.60;;;6.87;;
16242;SDS011;11719;51.052;6.982;2023-02-16T07:02:59;9.63;;;5.27;;
16242;SDS011;11719;51.052;6.982;2023-02-16T07:05:25;17.20;;;6.57;;
16242;SDS011;11719;51.052;6.982;2023-02-16T07:07:51;12.13;;;5.87;;
16242;SDS011;11719;51.052;6.982;2023-02-16T07:10:17;13.60;;;7.90;;
16242;SDS011;11719;51.052;6.982;2023-02-16T07:12:44;11.33;;;5.90;;
16242;SDS011;11719;51.052;6.982;2023-02-16T07:15:11;11.00;;;5.83;;
16242;SDS011;11719;51.052;6.982;2023-02-16T07:17:37;10.10;;;5.53;;
16242;SDS011;11719;51.052;6.982;2023-02-16T07:20:03;9.83;;;5.77;;
16242;SDS011;11719;51.052;6.982;2023-02-16T07:22:30;13.67;;;6.47;;
16242;SDS011;11719;51.052;6.982;2023-02-16T07:24:56;10.80;;;4.77;;
16242;SDS011;11719;51.052;6.982;2023-02-16T07:27:24;11.00;;;5.47;;
16242;SDS011;11719;51.052;6.982;2023-02-16T07:29:51;13.80;;;6.60;;
16242;SDS011;11719;51.052;6.982;2023-02-16T07:32:17;11.93;;;6.30;;
16242;SDS011;11719;51.052;6.982;2023-02-16T07:34:43;8.07;;;5.43;;
16242;SDS011;11719;51.052;6.982;2023-02-16T07:37:09;16.30;;;7.20;;
16242;SDS011;11719;51.052;6.982;2023-02-16T07:39:36;10.67;;;5.73;;
16242;SDS011;11719;51.052;6.982;2023-02-16T07:42:02;10.67;;;5.67;;
16242;SDS011;11719;51.052;6.982;2023-02-16T07:44:29;13.17;;;6.67;;
16242;SDS011;11719;51.052;6.982;2023-02-16T07:46:55;15.13;;;6.67;;
16242;SDS011;11719;51.052;6.982;2023-02-16T07:49:21;11.07;;;5.63;;
16242;SDS011;11719;51.052;6.982;2023-02-16T07:51:47;11.40;;;6.23;;
16242;SDS011;11719;51.052;6.982;2023-02-16T07:54:13;13.40;;;5.93;;
16242;SDS011;11719;51.052;6.982;2023-02-16T07:56:39;6.47;;;3.50;;
16242;SDS011;11719;51.052;6.982;2023-02-16T07:59:05;16.43;;;6.53;;
16242;SDS011;11719;51.052;6.982;2023-02-16T08:01:31;15.10;;;6.33;;
16242;SDS011;11719;51.052;6.982;2023-02-16T08:03:57;18.57;;;5.77;;
16242;SDS011;11719;51.052;6.982;2023-02-16T08:06:22;12.00;;;5.43;;
16242;SDS011;11719;51.052;6.982;2023-02-16T08:08:48;13.30;;;6.27;;
16242;SDS011;11719;51.052;6.982;2023-02-16T08:11:18;13.90;;;5.47;;
16242;SDS011;11719;51.052;6.982;2023-02-16T08:13:47;6.90;;;3.90;;
16242;SDS011;11719;51.052;6.982;2023-02-16T08:16:14;3.50;;;2.57;;
16242;SDS011;11719;51.052;6.982;2023-02-16T08:21:29;4.30;;;2.67;;
16242;SDS011;11719;51.052;6.982;2023-02-16T08:23:58;5.17;;;2.80;;
16242;SDS011;11719;51.052;6.982;2023-02-16T08:26:28;7.20;;;3.00;;
16242;SDS011;11719;51.052;6.982;2023-02-16T08:29:01;4.37;;;2.60;;
16242;SDS011;11719;51.052;6.982;2023-02-16T08:31:28;3.67;;;2.40;;
16242;SDS011;11719;51.052;6.982;2023-02-16T08:33:56;5.93;;;2.93;;
16242;SDS011;11719;51.052;6.982;2023-02-16T08:36:25;8.40;;;4.60;;
16242;SDS011;11719;51.052;6.982;2023-02-16T08:38:57;4.80;;;2.80;;
16242;SDS011;11719;51.052;6.982;2023-02-16T08:41:24;6.90;;;3.83;;
16242;SDS011;11719;51.052;6.982;2023-02-16T08:43:55;4.93;;;2.97;;
16242;SDS011;11719;51.052;6.982;2023-02-16T08:46:21;5.43;;;3.07;;
16242;SDS011;11719;51.052;6.982;2023-02-16T08:48:47;5.97;;;2.70;;
16242;SDS011;11719;51.052;6.982;2023-02-16T08:51:14;4.63;;;2.50;;
16242;SDS011;11719;51.052;6.982;2023-02-16T08:53:44;6.70;;;3.33;;
16242;SDS011;11719;51.052;6.982;2023-02-16T08:56:11;7.50;;;3.37;;
16242;SDS011;11719;51.052;6.982;2023-02-16T08:58:38;6.03;;;2.77;;
16242;SDS011;11719;51.052;6.982;2023-02-16T09:01:07;5.90;;;2.73;;
16242;SDS011;11719;51.052;6.982;2023-02-16T09:03:35;3.93;;;2.60;;
16242;SDS011;11719;51.052;6.982;2023-02-16T09:06:03;6.20;;;2.87;;
16242;SDS011;11719;51.052;6.982;2023-02-16T09:08:30;5.37;;;2.97;;
16242;SDS011;11719;51.052;6.982;2023-02-16T09:11:14;4.53;;;2.50;;
16242;SDS011;11719;51.052;6.982;2023-02-16T09:13:41;6.73;;;2.97;;
16242;SDS011;11719;51.052;6.982;2023-02-16T09:16:08;5.37;;;2.73;;
16242;SDS011;11719;51.052;6.982;2023-02-16T09:18:38;4.70;;;2.40;;
16242;SDS011;11719;51.052;6.982;2023-02-16T09:21:05;3.60;;;2.13;;
16242;SDS011;11719;51.052;6.982;2023-02-16T09:23:38;4.90;;;2.40;;
16242;SDS011;11719;51.052;6.982;2023-02-16T09:26:06;5.90;;;3.27;;
16242;SDS011;11719;51.052;6.982;2023-02-16T09:28:33;5.47;;;3.17;;
16242;SDS011;11719;51.052;6.982;2023-02-16T09:31:15;4.07;;;2.33;;
16242;SDS011;11719;51.052;6.982;2023-02-16T09:33:49;5.37;;;2.80;;
16242;SDS011;11719;51.052;6.982;2023-02-16T09:36:16;4.33;;;2.80;;
16242;SDS011;11719;51.052;6.982;2023-02-16T09:38:42;4.23;;;2.33;;
16242;SDS011;11719;51.052;6.982;2023-02-16T09:41:22;5.47;;;2.93;;
16242;SDS011;11719;51.052;6.982;2023-02-16T09:46:25;5.87;;;3.33;;
16242;SDS011;11719;51.052;6.982;2023-02-16T09:48:53;2.60;;;1.80;;
16242;SDS011;11719;51.052;6.982;2023-02-16T09:51:20;4.43;;;2.83;;
16242;SDS011;11719;51.052;6.982;2023-02-16T09:57:06;7.13;;;3.50;;
16242;SDS011;11719;51.052;6.982;2023-02-16T10:07:39;8.60;;;4.73;;
16242;SDS011;11719;51.052;6.982;2023-02-16T10:10:49;5.97;;;3.50;;
16242;SDS011;11719;51.052;6.982;2023-02-16T10:13:46;6.07;;;2.50;;
16242;SDS011;11719;51.052;6.982;2023-02-16T10:16:19;14.97;;;6.63;;
16242;SDS011;11719;51.052;6.982;2023-02-16T10:18:54;7.90;;;4.77;;
16242;SDS011;11719;51.052;6.982;2023-02-16T10:21:23;7.73;;;3.77;;
16242;SDS011;11719;51.052;6.982;2023-02-16T10:23:57;9.30;;;6.10;;
16242;SDS011;11719;51.052;6.982;2023-02-16T10:26:32;10.40;;;6.07;;
16242;SDS011;11719;51.052;6.982;2023-02-16T10:34:47;8.47;;;4.83;;
16242;SDS011;11719;51.052;6.982;2023-02-16T10:37:54;9.20;;;4.60;;
16242;SDS011;11719;51.052;6.982;2023-02-16T10:40:50;12.33;;;5.50;;
16242;SDS011;11719;51.052;6.982;2023-02-16T10:43:55;13.17;;;5.50;;
16242;SDS011;11719;51.052;6.982;2023-02-16T10:46:51;9.67;;;6.40;;
16242;SDS011;11719;51.052;6.982;2023-02-16T10:49:23;8.60;;;4.47;;
16242;SDS011;11719;51.052;6.982;2023-02-16T10:51:51;13.10;;;6.47;;
16242;SDS011;11719;51.052;6.982;2023-02-16T10:54:29;12.73;;;6.47;;
16242;SDS011;11719;51.052;6.982;2023-02-16T10:59:36;15.77;;;6.60;;
16242;SDS011;11719;51.052;6.982;2023-02-16T11:05:01;10.63;;;4.00;;
16242;SDS011;11719;51.052;6.982;2023-02-16T11:07:29;12.10;;;5.47;;
16242;SDS011;11719;51.052;6.982;2023-02-16T11:09:56;9.87;;;5.27;;
16242;SDS011;11719;51.052;6.982;2023-02-16T11:15:03;15.60;;;6.37;;
16242;SDS011;11719;51.052;6.982;2023-02-16T11:20:29;6.67;;;3.03;;
16242;SDS011;11719;51.052;6.982;2023-02-16T11:33:55;9.73;;;4.97;;
16242;SDS011;11719;51.052;6.982;2023-02-16T11:39:00;13.00;;;5.73;;
16242;SDS011;11719;51.052;6.982;2023-02-16T11:44:21;7.33;;;4.07;;
16242;SDS011;11719;51.052;6.982;2023-02-16T11:47:04;4.73;;;2.90;;
16242;SDS011;11719;51.052;6.982;2023-02-16T11:49:49;5.97;;;4.13;;
16242;SDS011;11719;51.052;6.982;2023-02-16T11:52:32;7.10;;;2.90;;
16242;SDS011;11719;51.052;6.982;2023-02-16T11:54:59;8.23;;;5.63;;
16242;SDS011;11719;51.052;6.982;2023-02-16T11:57:33;9.57;;;4.10;;
16242;SDS011;11719;51.052;6.982;2023-02-16T12:00:05;13.53;;;5.77;;
16242;SDS011;11719;51.052;6.982;2023-02-16T12:08:47;10.03;;;5.47;;
16242;SDS011;11719;51.052;6.982;2023-02-16T12:17:10;8.50;;;4.90;;
16242;SDS011;11719;51.052;6.982;2023-02-16T12:22:50;8.00;;;4.83;;
16242;SDS011;11719;51.052;6.982;2023-02-16T12:25:47;9.93;;;5.57;;
16242;SDS011;11719;51.052;6.982;2023-02-16T12:28:41;9.67;;;5.70;;
16242;SDS011;11719;51.052;6.982;2023-02-16T12:32:02;11.60;;;5.90;;
16242;SDS011;11719;51.052;6.982;2023-02-16T12:40:13;9.23;;;5.40;;
16242;SDS011;11719;51.052;6.982;2023-02-16T12:46:12;10.87;;;5.33;;
16242;SDS011;11719;51.052;6.982;2023-02-16T12:48:49;9.37;;;5.03;;
16242;SDS011;11719;51.052;6.982;2023-02-16T12:51:27;9.43;;;4.50;;
16242;SDS011;11719;51.052;6.982;2023-02-16T12:54:03;9.10;;;5.60;;
16242;SDS011;11719;51.052;6.982;2023-02-16T12:56:46;11.73;;;4.97;;
16242;SDS011;11719;51.052;6.982;2023-02-16T12:59:31;8.83;;;5.13;;
16242;SDS011;11719;51.052;6.982;2023-02-16T13:05:20;8.67;;;4.97;;
16242;SDS011;11719;51.052;6.982;2023-02-16T13:07:57;6.70;;;4.00;;
16242;SDS011;11719;51.052;6.982;2023-02-16T13:11:03;10.70;;;5.80;;
16242;SDS011;11719;51.052;6.982;2023-02-16T13:13:40;11.33;;;5.70;;
16242;SDS011;11719;51.052;6.982;2023-02-16T13:16:14;13.13;;;5.93;;
16242;SDS011;11719;51.052;6.982;2023-02-16T13:18:47;6.63;;;3.13;;
16242;SDS011;11719;51.052;6.982;2023-02-16T13:33:38;8.57;;;4.87;;
16242;SDS011;11719;51.052;6.982;2023-02-16T13:45:13;9.47;;;5.07;;
16242;SDS011;11719;51.052;6.982;2023-02-16T13:47:53;11.67;;;5.80;;
16242;SDS011;11719;51.052;6.982;2023-02-16T13:52:48;3.70;;;2.70;;
16242;SDS011;11719;51.052;6.982;2023-02-16T14:00:43;4.90;;;1.90;;
16242;SDS011;11719;51.052;6.982;2023-02-16T14:05:47;8.93;;;4.83;;
16242;SDS011;11719;51.052;6.982;2023-02-16T14:08:28;13.43;;;5.73;;
16242;SDS011;11719;51.052;6.982;2023-02-16T14:10:59;10.50;;;5.27;;
16242;SDS011;11719;51.052;6.982;2023-02-16T14:16:09;10.27;;;5.60;;
16242;SDS011;11719;51.052;6.982;2023-02-16T14:21:16;6.93;;;3.97;;
16242;SDS011;11719;51.052;6.982;2023-02-16T14:23:58;9.93;;;5.13;;
16242;SDS011;11719;51.052;6.982;2023-02-16T14:26:27;5.47;;;3.20;;
16242;SDS011;11719;51.052;6.982;2023-02-16T14:31:31;12.23;;;5.47;;
16242;SDS011;11719;51.052;6.982;2023-02-16T14:34:11;6.43;;;2.90;;
16242;SDS011;11719;51.052;6.982;2023-02-16T14:39:41;10.27;;;6.03;;
16242;SDS011;11719;51.052;6.982;2023-02-16T14:42:16;10.10;;;5.43;;
16242;SDS011;11719;51.052;6.982;2023-02-16T15:05:36;8.03;;;4.17;;
16242;SDS011;11719;51.052;6.982;2023-02-16T15:10:47;8.43;;;4.10;;
16242;SDS011;11719;51.052;6.982;2023-02-16T15:13:26;14.47;;;4.73;;
16242;SDS011;11719;51.052;6.982;2023-02-16T15:15:58;5.03;;;3.07;;
16242;SDS011;11719;51.052;6.982;2023-02-16T15:18:28;8.37;;;4.30;;
16242;SDS011;11719;51.052;6.982;2023-02-16T15:21:01;11.43;;;4.97;;
16242;SDS011;11719;51.052;6.982;2023-02-16T15:23:29;6.77;;;4.43;;
16242;SDS011;11719;51.052;6.982;2023-02-16T15:28:39;4.67;;;2.20;;
16242;SDS011;11719;51.052;6.982;2023-02-16T15:31:16;10.30;;;5.20;;
16242;SDS011;11719;51.052;6.982;2023-02-16T15:33:51;4.77;;;2.73;;
16242;SDS011;11719;51.052;6.982;2023-02-16T15:36:29;7.00;;;4.00;;
16242;SDS011;11719;51.052;6.982;2023-02-16T15:39:08;5.23;;;2.20;;
16242;SDS011;11719;51.052;6.982;2023-02-16T15:41:52;9.07;;;4.53;;
16242;SDS011;11719;51.052;6.982;2023-02-16T15:44:36;8.97;;;4.30;;
16242;SDS011;11719;51.052;6.982;2023-02-16T15:47:06;8.17;;;4.30;;
16242;SDS011;11719;51.052;6.982;2023-02-16T15:49:53;6.83;;;3.90;;
16242;SDS011;11719;51.052;6.982;2023-02-16T15:52:22;9.03;;;4.27;;
16242;SDS011;11719;51.052;6.982;2023-02-16T15:54:58;6.63;;;2.97;;
16242;SDS011;11719;51.052;6.982;2023-02-16T15:59:55;9.83;;;4.20;;
16242;SDS011;11719;51.052;6.982;2023-02-16T16:02:26;8.33;;;4.07;;
16242;SDS011;11719;51.052;6.982;2023-02-16T16:05:05;3.87;;;2.50;;
16242;SDS011;11719;51.052;6.982;2023-02-16T16:07:45;8.87;;;4.37;;
16242;SDS011;11719;51.052;6.982;2023-02-16T16:10:16;3.90;;;2.43;;
16242;SDS011;11719;51.052;6.982;2023-02-16T16:12:50;4.90;;;2.63;;
16242;SDS011;11719;51.052;6.982;2023-02-16T16:15:21;8.93;;;4.30;;
16242;SDS011;11719;51.052;6.982;2023-02-16T16:17:51;7.17;;;4.27;;
16242;SDS011;11719;51.052;6.982;2023-02-16T16:23:05;7.17;;;4.07;;
16242;SDS011;11719;51.052;6.982;2023-02-16T16:25:42;5.23;;;2.80;;
16242;SDS011;11719;51.052;6.982;2023-02-16T16:28:11;4.20;;;2.73;;
16242;SDS011;11719;51.052;6.982;2023-02-16T16:33:59;7.97;;;3.80;;
16242;SDS011;11719;51.052;6.982;2023-02-16T16:36:40;7.07;;;3.37;;
16242;SDS011;11719;51.052;6.982;2023-02-16T16:42:00;4.30;;;2.77;;
16242;SDS011;11719;51.052;6.982;2023-02-16T16:44:57;10.33;;;4.83;;
16242;SDS011;11719;51.052;6.982;2023-02-16T16:47:33;7.43;;;3.90;;
16242;SDS011;11719;51.052;6.982;2023-02-16T16:52:44;5.90;;;3.53;;
16242;SDS011;11719;51.052;6.982;2023-02-16T16:55:54;9.00;;;3.10;;
16242;SDS011;11719;51.052;6.982;2023-02-16T16:58:05;10.73;;;5.30;;
16242;SDS011;11719;51.052;6.982;2023-02-16T17:00:33;9.73;;;4.97;;
16242;SDS011;11719;51.052;6.982;2023-02-16T17:03:02;12.47;;;5.10;;
16242;SDS011;11719;51.052;6.982;2023-02-16T17:05:31;7.20;;;3.53;;
16242;SDS011;11719;51.052;6.982;2023-02-16T17:07:59;4.70;;;2.80;;
16242;SDS011;11719;51.052;6.982;2023-02-16T17:10:26;3.87;;;2.27;;
16242;SDS011;11719;51.052;6.982;2023-02-16T17:12:53;10.10;;;3.77;;
16242;SDS011;11719;51.052;6.982;2023-02-16T17:17:53;5.77;;;2.90;;
16242;SDS011;11719;51.052;6.982;2023-02-16T17:20:19;8.50;;;3.70;;
16242;SDS011;11719;51.052;6.982;2023-02-16T17:22:45;9.00;;;4.33;;
16242;SDS011;11719;51.052;6.982;2023-02-16T17:25:11;11.20;;;4.70;;
16242;SDS011;11719;51.052;6.982;2023-02-16T17:27:36;4.60;;;2.60;;
16242;SDS011;11719;51.052;6.982;2023-02-16T17:30:03;2.07;;;1.77;;
16242;SDS011;11719;51.052;6.982;2023-02-16T17:32:30;3.83;;;2.27;;
16242;SDS011;11719;51.052;6.982;2023-02-16T17:34:55;5.90;;;3.60;;
16242;SDS011;11719;51.052;6.982;2023-02-16T17:37:21;5.40;;;3.40;;
16242;SDS011;11719;51.052;6.982;2023-02-16T17:39:48;6.57;;;3.87;;
16242;SDS011;11719;51.052;6.982;2023-02-16T17:42:14;6.40;;;3.67;;
16242;SDS011;11719;51.052;6.982;2023-02-16T17:44:40;5.60;;;3.00;;
16242;SDS011;11719;51.052;6.982;2023-02-16T17:47:08;3.97;;;1.90;;
16242;SDS011;11719;51.052;6.982;2023-02-16T17:49:38;4.53;;;2.77;;
16242;SDS011;11719;51.052;6.982;2023-02-16T17:52:04;4.43;;;2.87;;
16242;SDS011;11719;51.052;6.982;2023-02-16T17:54:37;6.00;;;3.30;;
16242;SDS011;11719;51.052;6.982;2023-02-16T17:57:03;3.73;;;2.77;;
16242;SDS011;11719;51.052;6.982;2023-02-16T17:59:29;7.33;;;3.90;;
16242;SDS011;11719;51.052;6.982;2023-02-16T18:01:57;3.27;;;2.03;;
16242;SDS011;11719;51.052;6.982;2023-02-16T18:04:23;7.20;;;3.63;;
16242;SDS011;11719;51.052;6.982;2023-02-16T18:06:49;7.57;;;3.37;;
16242;SDS011;11719;51.052;6.982;2023-02-16T18:09:15;7.70;;;3.90;;
16242;SDS011;11719;51.052;6.982;2023-02-16T18:11:48;3.73;;;1.93;;
16242;SDS011;11719;51.052;6.982;2023-02-16T18:14:14;5.93;;;3.07;;
16242;SDS011;11719;51.052;6.982;2023-02-16T18:16:41;2.33;;;1.87;;
16242;SDS011;11719;51.052;6.982;2023-02-16T18:19:08;6.17;;;3.40;;
16242;SDS011;11719;51.052;6.982;2023-02-16T18:21:38;3.50;;;1.90;;
16242;SDS011;11719;51.052;6.982;2023-02-16T18:24:04;4.57;;;2.67;;